Time;durP1;ratioP1;P1;durP2;ratioP2;P2;SDS_P1;SDS_P2;PMS_P1;PMS_P2;Temp;Humidity;BMP_temperature;BMP_pressure;BME280_temperature;BME280_humidity;BME280_pressure;Samples;Min_cycle;Max_cycle;Signal;HPM_P1;HPM_P2
2023/10/08 00:01:55;;;;;;;2.92;1.85;;;;;;;18.51;100.00;98601.28;15290403;19;20021;-53
2023/10/08 00:07:23;;;;;;;3.08;1.80;;;;;;;18.45;100.00;98633.78;15288617;19;20029;-54
2023/10/08 00:12:51;;;;;;;5.88;2.08;;;;;;;18.41;100.00;98599.78;15282690;19;20530;-54
2023/10/08 00:18:18;;;;;;;3.72;1.90;;;;;;;18.39;100.00;98617.41;15287364;19;20029;-53
2023/10/08 00:23:50;;;;;;;5.00;1.92;;;;;;;18.41;100.00;98627.06;15291700;19;20014;-54
2023/10/08 00:29:21;;;;;;;4.82;1.92;;;;;;;18.45;100.00;98609.25;15284472;19;20019;-56
2023/10/08 00:34:46;;;;;;;4.63;1.80;;;;;;;18.42;100.00;98620.56;15289965;19;20018;-52
2023/10/08 00:40:19;;;;;;;4.30;2.20;;;;;;;18.40;100.00;98614.50;15288526;19;20525;-58
2023/10/08 00:45:50;;;;;;;5.57;1.88;;;;;;;18.38;100.00;98611.13;15282191;19;20015;-56
2023/10/08 00:51:32;;;;;;;4.45;2.03;;;;;;;18.34;100.00;98615.31;15282746;19;20027;-58
2023/10/08 00:57:03;;;;;;;4.55;1.98;;;;;;;18.35;100.00;98648.88;15284385;19;20355;-56
2023/10/08 01:02:44;;;;;;;3.35;2.08;;;;;;;18.34;100.00;98631.69;15289580;19;20090;-56
2023/10/08 01:08:12;;;;;;;2.70;1.90;;;;;;;18.30;100.00;98614.03;15285541;19;20359;-52
2023/10/08 01:13:45;;;;;;;3.67;2.00;;;;;;;18.29;100.00;98613.22;15275879;19;20093;-52
2023/10/08 01:19:12;;;;;;;6.50;2.13;;;;;;;18.25;100.00;98622.03;15281967;19;20007;-52
2023/10/08 01:24:43;;;;;;;7.70;2.28;;;;;;;18.27;100.00;98630.84;15287996;19;20462;-52
2023/10/08 01:30:17;;;;;;;4.25;2.00;;;;;;;18.25;100.00;98628.28;15284544;19;20021;-53
2023/10/08 01:35:42;;;;;;;4.97;2.17;;;;;;;18.23;100.00;98602.28;15285683;19;20023;-52
2023/10/08 01:41:18;;;;;;;5.78;2.20;;;;;;;18.17;100.00;98615.69;15284539;19;20018;-56
2023/10/08 01:46:49;;;;;;;4.45;2.28;;;;;;;18.14;100.00;98629.75;15274997;19;20014;-53
2023/10/08 01:52:20;;;;;;;3.22;1.83;;;;;;;18.10;100.00;98628.47;15280464;19;20025;-56
2023/10/08 01:57:47;;;;;;;4.63;2.20;;;;;;;18.06;100.00;98654.47;15281381;19;20018;-55
2023/10/08 02:03:13;;;;;;;4.35;2.00;;;;;;;18.00;100.00;98625.31;15282525;19;20042;-58
2023/10/08 02:08:37;;;;;;;4.07;2.35;;;;;;;17.99;100.00;98632.63;15281585;19;20002;-52
2023/10/08 02:14:06;;;;;;;3.17;1.77;;;;;;;18.00;100.00;98650.66;15280320;19;20024;-52
2023/10/08 02:19:32;;;;;;;3.70;1.70;;;;;;;17.98;100.00;98660.94;15269148;19;20077;-55
2023/10/08 02:25:01;;;;;;;3.53;2.13;;;;;;;17.90;100.00;98674.69;15281819;19;20549;-54
2023/10/08 02:30:29;;;;;;;4.20;2.20;;;;;;;17.86;100.00;98665.28;15281190;19;20017;-58
2023/10/08 02:35:55;;;;;;;4.78;2.05;;;;;;;17.80;100.00;98696.91;15280371;19;20467;-59
2023/10/08 02:41:26;;;;;;;4.20;2.03;;;;;;;17.82;100.00;98697.50;15282237;19;20014;-52
2023/10/08 02:47:01;;;;;;;4.22;2.13;;;;;;;17.79;100.00;98697.09;15279543;19;20057;-55
2023/10/08 02:52:26;;;;;;;5.05;2.00;;;;;;;17.75;100.00;98718.44;15274441;19;20015;-53
2023/10/08 02:57:50;;;;;;;3.83;2.00;;;;;;;17.74;100.00;98714.03;15277801;19;20018;-53
2023/10/08 03:03:19;;;;;;;4.82;2.17;;;;;;;17.71;100.00;98719.88;15279640;19;20014;-52
2023/10/08 03:08:47;;;;;;;5.30;2.30;;;;;;;17.63;100.00;98707.28;15274535;19;20107;-57
2023/10/08 03:14:21;;;;;;;4.03;2.00;;;;;;;17.59;100.00;98735.97;15277159;19;20018;-59
2023/10/08 03:19:48;;;;;;;1.90;0.73;;;;;;;16.71;100.00;98775.13;15278584;19;20517;-56
2023/10/08 03:25:18;;;;;;;0.40;0.40;;;;;;;15.02;100.00;98814.44;15273795;19;20023;-52
2023/10/08 03:30:51;;;;;;;0.50;0.25;;;;;;;14.21;100.00;98832.81;15285370;19;20020;-57
2023/10/08 03:36:34;;;;;;;0.50;0.50;;;;;;;13.72;100.00;98867.09;15292232;19;20017;-54
2023/10/08 03:42:07;;;;;;;0.50;0.50;;;;;;;13.53;100.00;98836.66;15293369;19;20093;-56
2023/10/08 03:47:32;;;;;;;0.60;0.60;;;;;;;13.42;100.00;98826.19;15289796;19;20802;-57
2023/10/08 03:53:02;;;;;;;0.57;0.57;;;;;;;13.43;100.00;98835.13;15289543;19;20010;-58
2023/10/08 03:58:33;;;;;;;0.60;0.60;;;;;;;13.36;100.00;98851.16;15283526;19;20691;-54
2023/10/08 04:04:01;;;;;;;0.57;0.57;;;;;;;13.45;100.00;98852.91;15292841;19;20018;-56
2023/10/08 04:09:31;;;;;;;0.70;0.70;;;;;;;13.43;100.00;98837.84;15287672;19;20485;-57
2023/10/08 04:14:57;;;;;;;1.38;0.85;;;;;;;13.36;100.00;98853.88;15285435;19;20101;-51
2023/10/08 04:20:38;;;;;;;0.90;0.90;;;;;;;13.32;100.00;98855.25;15294586;19;20031;-55
2023/10/08 04:26:06;;;;;;;1.08;1.08;;;;;;;13.32;100.00;98866.06;15290991;19;20021;-55
2023/10/08 04:31:37;;;;;;;1.00;1.00;;;;;;;13.28;100.00;98870.13;15285284;19;20021;-55
2023/10/08 04:37:10;;;;;;;0.85;0.85;;;;;;;13.20;100.00;98862.84;15287939;19;20006;-56
2023/10/08 04:42:37;;;;;;;0.80;0.80;;;;;;;13.19;100.00;98837.66;15291574;19;20074;-54
2023/10/08 04:48:14;;;;;;;0.70;0.70;;;;;;;13.30;100.00;98838.34;15286576;19;20069;-56
2023/10/08 04:53:40;;;;;;;1.20;1.20;;;;;;;13.31;100.00;98865.22;15288173;19;20017;-57
2023/10/08 04:59:11;;;;;;;2.30;2.20;;;;;;;13.12;100.00;98893.41;15283756;19;20021;-52
2023/10/08 05:04:46;;;;;;;2.28;2.17;;;;;;;12.98;100.00;98913.03;15288806;19;20515;-56
2023/10/08 05:10:32;;;;;;;2.05;1.95;;;;;;;12.75;100.00;98944.19;15289189;19;20014;-56
2023/10/08 05:16:19;;;;;;;1.40;1.30;;;;;;;12.63;100.00;98945.50;15286969;19;20015;-53
2023/10/08 05:21:51;;;;;;;0.90;0.90;;;;;;;12.60;100.00;98945.81;15288418;19;20037;-57
2023/10/08 05:27:56;;;;;;;0.98;0.98;;;;;;;12.49;100.00;98941.56;15285193;19;20498;-55
2023/10/08 05:33:44;;;;;;;1.10;1.10;;;;;;;12.56;100.00;98952.56;15281123;19;20070;-54
2023/10/08 05:39:29;;;;;;;0.50;0.50;;;;;;;12.43;100.00;98963.78;15283921;19;20090;-58
2023/10/08 05:45:14;;;;;;;0.30;0.30;;;;;;;12.26;100.00;98979.91;15285198;19;20032;-56
2023/10/08 05:51:13;;;;;;;0.50;0.50;;;;;;;11.84;100.00;99004.88;15279997;19;20348;-55
2023/10/08 05:57:04;;;;;;;0.63;0.63;;;;;;;11.51;100.00;99029.72;15283489;19;20473;-54
2023/10/08 06:02:48;;;;;;;0.70;0.70;;;;;;;11.26;100.00;99063.63;15283374;19;20021;-54
2023/10/08 06:08:38;;;;;;;0.70;0.70;;;;;;;11.10;100.00;99091.25;15277125;19;20483;-55
2023/10/08 06:14:03;;;;;;;0.50;0.50;;;;;;;11.03;100.00;99103.63;15279723;19;20612;-53
2023/10/08 06:19:21;;;;;;;0.50;0.50;;;;;;;10.94;100.00;99118.84;15277422;19;20032;-54
2023/10/08 06:24:42;;;;;;;0.55;0.55;;;;;;;10.91;100.00;99136.16;15282094;19;20035;-55
2023/10/08 06:30:16;;;;;;;0.50;0.50;;;;;;;10.85;100.00;99158.28;15280598;19;20013;-58
2023/10/08 06:35:44;;;;;;;0.55;0.38;;;;;;;10.89;100.00;99169.63;15276428;19;20002;-56
2023/10/08 06:41:15;;;;;;;0.30;0.30;;;;;;;10.91;100.00;99191.91;15281790;19;20020;-57
2023/10/08 06:47:09;;;;;;;0.30;0.30;;;;;;;10.81;100.00;99204.56;15276612;19;20025;-55
2023/10/08 06:52:36;;;;;;;0.40;0.40;;;;;;;10.69;100.00;99231.66;15277581;19;20028;-58
2023/10/08 06:58:05;;;;;;;0.20;0.20;;;;;;;10.66;100.00;99249.97;15278241;19;20018;-54
2023/10/08 07:03:31;;;;;;;0.28;0.28;;;;;;;10.89;100.00;99282.84;15283122;19;20306;-49
2023/10/08 07:08:59;;;;;;;0.30;0.10;;;;;;;11.01;100.00;99310.53;15285489;19;20025;-46
2023/10/08 07:14:31;;;;;;;0.20;0.20;;;;;;;10.83;100.00;99315.78;15290636;19;20014;-48
2023/10/08 07:19:57;;;;;;;0.70;0.50;;;;;;;10.70;100.00;99343.88;15294114;19;20017;-45
2023/10/08 07:25:24;;;;;;;1.45;0.40;;;;;;;10.53;100.00;99323.84;15292513;19;20011;-44
2023/10/08 07:30:52;;;;;;;0.50;0.40;;;;;;;10.53;100.00;99314.88;15293041;19;20628;-46
2023/10/08 07:36:18;;;;;;;0.75;0.60;;;;;;;10.52;100.00;99350.94;15280608;19;20022;-45
2023/10/08 07:41:43;;;;;;;0.63;0.40;;;;;;;10.21;100.00;99337.47;15289296;19;20019;-53
2023/10/08 07:47:14;;;;;;;3.75;0.60;;;;;;;9.84;100.00;99357.72;15288272;19;20534;-55
2023/10/08 07:52:42;;;;;;;0.90;0.60;;;;;;;9.71;100.00;99385.69;15294043;19;20022;-51
2023/10/08 07:58:11;;;;;;;2.75;0.80;;;;;;;9.75;100.00;99391.66;15288279;19;20014;-53
2023/10/08 08:03:41;;;;;;;0.77;0.60;;;;;;;9.83;100.00;99383.75;15293744;19;20003;-50
2023/10/08 08:09:17;;;;;;;2.20;0.80;;;;;;;9.86;100.00;99405.03;15286862;19;20015;-51
2023/10/08 08:14:43;;;;;;;2.70;0.70;;;;;;;9.90;100.00;99410.16;15282680;19;20011;-51
2023/10/08 08:20:22;;;;;;;1.17;0.80;;;;;;;9.86;100.00;99413.09;15290951;19;20491;-52
2023/10/08 08:26:11;;;;;;;2.33;1.00;;;;;;;9.92;100.00;99422.50;15291145;19;20332;-51
2023/10/08 08:31:38;;;;;;;1.38;0.80;;;;;;;9.87;100.00;99441.75;15289657;19;20070;-55
2023/10/08 08:37:06;;;;;;;2.38;0.82;;;;;;;9.67;100.00;99458.75;15289048;19;20078;-52
2023/10/08 08:42:37;;;;;;;2.03;1.10;;;;;;;9.62;100.00;99469.91;15291314;19;20018;-55
2023/10/08 08:48:04;;;;;;;1.90;0.90;;;;;;;9.67;100.00;99491.88;15281761;19;20019;-54
2023/10/08 08:53:32;;;;;;;2.35;0.93;;;;;;;9.59;100.00;99486.28;15267398;19;20367;-52
2023/10/08 08:58:57;;;;;;;2.83;0.90;;;;;;;9.57;100.00;99499.00;15286412;19;20042;-53
2023/10/08 09:04:37;;;;;;;1.95;0.93;;;;;;;9.52;100.00;99498.56;15288773;19;20045;-51
2023/10/08 09:10:12;;;;;;;2.03;1.00;;;;;;;9.51;100.00;99523.75;15289828;19;20014;-51
2023/10/08 09:15:38;;;;;;;1.65;0.90;;;;;;;9.38;100.00;99519.38;15285273;19;20014;-51
2023/10/08 09:21:19;;;;;;;1.48;0.68;;;;;;;9.37;100.00;99517.66;15284015;19;20014;-52
2023/10/08 09:26:40;;;;;;;2.10;0.90;;;;;;;9.38;100.00;99507.75;15284437;19;20360;-56
2023/10/08 09:32:06;;;;;;;1.10;0.80;;;;;;;9.47;100.00;99512.34;15286713;19;20538;-55
2023/10/08 09:37:33;;;;;;;1.52;0.90;;;;;;;9.65;100.00;99525.28;15284616;19;20018;-54
2023/10/08 09:43:03;;;;;;;1.90;0.85;;;;;;;9.75;100.00;99523.53;15288698;19;20020;-53
2023/10/08 09:48:36;;;;;;;1.83;0.88;;;;;;;9.80;100.00;99507.84;15282875;19;20018;-54
2023/10/08 09:54:13;;;;;;;2.22;0.80;;;;;;;9.91;100.00;99525.78;15279159;19;20475;-57
2023/10/08 09:59:44;;;;;;;1.90;0.80;;;;;;;9.96;100.00;99542.41;15282217;19;20018;-53
2023/10/08 10:05:14;;;;;;;1.47;0.80;;;;;;;10.01;100.00;99550.09;15285223;19;20043;-52
2023/10/08 10:10:43;;;;;;;2.47;0.80;;;;;;;10.07;100.00;99552.25;15284650;19;20010;-52
2023/10/08 10:16:13;;;;;;;0.98;0.73;;;;;;;10.25;100.00;99538.22;15282687;19;20011;-56
2023/10/08 10:21:41;;;;;;;1.05;0.80;;;;;;;10.25;100.00;99548.97;15285683;19;20039;-56
2023/10/08 10:27:14;;;;;;;0.82;0.70;;;;;;;10.33;100.00;99539.25;15302153;19;20015;-57
2023/10/08 10:32:42;;;;;;;1.73;0.80;;;;;;;10.41;100.00;99537.75;15282574;19;20039;-56
2023/10/08 10:38:08;;;;;;;1.85;0.70;;;;;;;10.47;100.00;99553.38;15271010;19;20018;-57
2023/10/08 10:43:36;;;;;;;1.88;0.80;;;;;;;10.44;100.00;99549.13;15277835;19;20007;-56
2023/10/08 10:49:17;;;;;;;1.90;0.90;;;;;;;10.50;100.00;99546.91;15274363;19;20049;-58
2023/10/08 10:54:50;;;;;;;1.70;0.80;;;;;;;10.53;100.00;99560.09;15269970;19;20018;-56
2023/10/08 11:00:47;;;;;;;2.63;0.80;;;;;;;10.65;100.00;99534.75;15274904;19;20479;-58
2023/10/08 11:06:15;;;;;;;1.63;0.80;;;;;;;10.83;100.00;99524.19;15253362;19;20031;-53
2023/10/08 11:11:43;;;;;;;2.15;0.90;;;;;;;11.00;100.00;99513.78;15269219;19;20013;-54
2023/10/08 11:17:08;;;;;;;1.23;0.77;;;;;;;11.14;100.00;99496.34;15274560;19;20007;-55
2023/10/08 11:22:46;;;;;;;1.20;0.82;;;;;;;11.23;100.00;99479.34;15278487;19;20022;-57
2023/10/08 11:28:12;;;;;;;1.73;0.80;;;;;;;11.30;100.00;99493.97;15268515;19;20022;-53
2023/10/08 11:33:39;;;;;;;1.60;0.98;;;;;;;11.22;100.00;99481.19;15277286;19;20686;-54
2023/10/08 11:39:23;;;;;;;2.38;1.00;;;;;;;11.16;100.00;99470.09;15276380;19;20014;-54
2023/10/08 11:44:52;;;;;;;1.55;0.70;;;;;;;11.25;100.00;99463.84;15275455;19;20010;-53
2023/10/08 11:50:30;;;;;;;1.58;0.80;;;;;;;11.36;100.00;99452.94;15280673;19;20082;-54
2023/10/08 11:55:59;;;;;;;1.70;0.90;;;;;;;11.55;100.00;99452.09;15287263;19;20086;-55
2023/10/08 12:01:25;;;;;;;2.70;0.90;;;;;;;11.69;100.00;99448.13;15285401;19;20391;-52
2023/10/08 12:06:52;;;;;;;1.70;0.88;;;;;;;11.84;100.00;99458.47;15290419;19;20018;-51
2023/10/08 12:12:23;;;;;;;0.95;0.73;;;;;;;11.71;100.00;99489.31;15290332;19;20018;-52
2023/10/08 12:18:08;;;;;;;2.00;0.90;;;;;;;11.86;100.00;99464.56;15279217;19;20045;-51
2023/10/08 12:23:33;;;;;;;1.92;0.90;;;;;;;12.20;100.00;99450.59;15285730;19;20020;-51
2023/10/08 12:29:01;;;;;;;1.30;0.80;;;;;;;12.53;100.00;99417.78;15285638;19;20021;-53
2023/10/08 12:34:29;;;;;;;0.73;0.63;;;;;;;12.61;100.00;99455.72;15280628;19;20039;-55
2023/10/08 12:40:10;;;;;;;1.25;0.80;;;;;;;12.59;100.00;99458.59;15284983;19;20066;-54
2023/10/08 12:45:38;;;;;;;1.33;0.93;;;;;;;12.70;100.00;99435.91;15287725;19;20078;-54
2023/10/08 12:51:05;;;;;;;4.00;0.90;;;;;;;12.78;100.00;99429.75;15283380;19;20102;-51
2023/10/08 12:56:39;;;;;;;2.85;1.00;;;;;;;13.08;100.00;99401.50;15281191;19;20036;-51
2023/10/08 13:02:10;;;;;;;1.13;0.68;;;;;;;13.52;100.00;99389.94;15288554;19;20078;-52
2023/10/08 13:07:41;;;;;;;2.35;0.60;;;;;;;13.74;100.00;99393.16;15279713;19;20020;-53
2023/10/08 13:13:06;;;;;;;1.52;0.70;;;;;;;13.80;100.00;99400.66;15285396;19;20014;-52
2023/10/08 13:18:34;;;;;;;1.63;0.90;;;;;;;13.63;100.00;99393.41;15277967;19;20022;-53
2023/10/08 13:24:00;;;;;;;1.23;0.80;;;;;;;13.65;100.00;99377.84;15280521;19;20051;-55
2023/10/08 13:29:26;;;;;;;2.05;0.90;;;;;;;13.70;100.00;99352.00;15279323;19;20037;-53
2023/10/08 13:34:54;;;;;;;1.35;0.80;;;;;;;13.89;100.00;99350.06;15281302;19;20379;-55
2023/10/08 13:40:24;;;;;;;2.28;1.00;;;;;;;13.99;100.00;99371.66;15279928;19;20357;-52
2023/10/08 13:45:54;;;;;;;1.38;0.80;;;;;;;14.32;100.00;99356.41;15281849;19;20074;-52
2023/10/08 13:51:33;;;;;;;1.50;0.90;;;;;;;14.63;100.00;99336.88;15280983;19;20021;-53
2023/10/08 13:56:58;;;;;;;1.75;1.00;;;;;;;14.67;100.00;99342.84;15275903;19;20018;-50
2023/10/08 14:02:25;;;;;;;2.00;1.00;;;;;;;14.92;100.00;99330.19;15279894;19;20010;-51
2023/10/08 14:07:53;;;;;;;1.92;0.90;;;;;;;15.23;100.00;99304.25;15281427;19;20367;-53
2023/10/08 14:13:19;;;;;;;1.65;0.90;;;;;;;15.44;100.00;99301.00;15281420;19;20045;-53
2023/10/08 14:25:11;;;;;;;1.05;0.80;;;;;;;15.90;100.00;99280.56;15270834;19;20014;-51
2023/10/08 14:30:41;;;;;;;1.60;0.90;;;;;;;15.53;100.00;99291.00;15282196;19;20025;-51
2023/10/08 14:47:24;;;;;;;1.52;0.98;;;;;;;14.68;100.00;99301.13;15279787;19;20483;-54
2023/10/08 14:52:55;;;;;;;1.73;0.98;;;;;;;14.69;100.00;99310.97;15277980;19;20074;-51
2023/10/08 14:58:22;;;;;;;1.83;1.00;;;;;;;14.90;100.00;99315.06;15272782;19;20037;-52
2023/10/08 15:03:47;;;;;;;2.33;1.00;;;;;;;14.96;100.00;99314.41;15282537;19;20012;-53
2023/10/08 15:09:20;;;;;;;1.52;0.98;;;;;;;14.73;100.00;99325.91;15268592;19;20037;-52
2023/10/08 15:14:50;;;;;;;1.55;0.98;;;;;;;14.47;100.00;99321.41;15269461;19;20018;-51
2023/10/08 15:20:17;;;;;;;1.75;1.00;;;;;;;14.26;100.00;99310.97;15280326;19;20017;-50
2023/10/08 15:25:42;;;;;;;1.80;1.00;;;;;;;14.10;100.00;99313.63;15261724;19;20032;-54
2023/10/08 15:31:09;;;;;;;2.85;1.05;;;;;;;13.98;100.00;99321.19;15295717;19;20074;-50
2023/10/08 15:36:35;;;;;;;1.67;0.93;;;;;;;13.89;100.00;99322.16;15289364;19;20085;-51
2023/10/08 15:41:59;;;;;;;2.50;1.13;;;;;;;13.76;100.00;99323.44;15292742;19;20070;-54
2023/10/08 15:47:27;;;;;;;1.90;0.90;;;;;;;13.65;100.00;99321.81;15279793;19;20021;-49
2023/10/08 15:52:59;;;;;;;2.67;1.10;;;;;;;13.50;100.00;99329.69;15286485;19;21761;-50
2023/10/08 15:58:24;;;;;;;1.73;1.10;;;;;;;13.35;100.00;99333.91;15282478;19;20022;-52
2023/10/08 16:03:52;;;;;;;2.72;0.90;;;;;;;13.26;100.00;99339.28;15282391;19;20337;-53
2023/10/08 16:09:17;;;;;;;2.67;1.08;;;;;;;13.13;100.00;99343.38;15281667;19;20374;-52
2023/10/08 16:14:42;;;;;;;2.13;1.10;;;;;;;12.99;100.00;99350.19;15289324;19;20010;-51
2023/10/08 16:20:13;;;;;;;2.40;1.23;;;;;;;12.85;100.00;99352.44;15283243;19;20041;-50
2023/10/08 16:25:38;;;;;;;1.77;1.20;;;;;;;12.72;100.00;99371.72;15290666;19;20013;-52
2023/10/08 16:31:06;;;;;;;1.60;1.10;;;;;;;12.54;100.00;99387.06;15291111;19;20023;-49
2023/10/08 16:36:34;;;;;;;1.77;1.10;;;;;;;12.38;100.00;99387.69;15279951;19;20025;-52
2023/10/08 16:41:59;;;;;;;1.27;1.15;;;;;;;12.20;100.00;99393.88;15287825;19;20025;-51
2023/10/08 16:47:24;;;;;;;1.40;1.20;;;;;;;12.04;100.00;99409.88;15286076;19;20041;-54
2023/10/08 16:52:58;;;;;;;2.15;1.35;;;;;;;11.92;100.00;99403.72;15278649;19;20449;-51
2023/10/08 16:58:22;;;;;;;3.88;1.33;;;;;;;11.94;100.00;99410.69;15272564;19;20018;-49
2023/10/08 17:03:48;;;;;;;3.80;1.35;;;;;;;11.80;100.00;99414.69;15287398;19;20035;-55
2023/10/08 17:09:22;;;;;;;1.52;1.15;;;;;;;11.63;100.00;99397.41;15290175;19;20345;-53
2023/10/08 17:14:49;;;;;;;1.67;1.00;;;;;;;11.53;100.00;99400.09;15282969;19;20250;-54
2023/10/08 17:20:16;;;;;;;1.27;1.00;;;;;;;11.39;100.00;99396.00;15282183;19;20022;-53
2023/10/08 17:25:45;;;;;;;1.67;1.05;;;;;;;11.21;100.00;99378.81;15273297;19;20027;-54
2023/10/08 17:31:11;;;;;;;1.73;1.02;;;;;;;11.17;100.00;99398.97;15277932;19;20025;-50
2023/10/08 17:36:38;;;;;;;2.55;1.10;;;;;;;11.12;100.00;99376.94;15289806;19;20635;-54
2023/10/08 17:42:07;;;;;;;1.75;1.10;;;;;;;11.10;100.00;99364.50;15281772;19;20002;-53
2023/10/08 17:47:33;;;;;;;1.80;1.10;;;;;;;11.01;100.00;99351.84;15277598;19;20021;-46
2023/10/08 17:53:07;;;;;;;1.65;1.10;;;;;;;10.98;100.00;99352.13;15279752;19;20021;-48
2023/10/08 17:58:37;;;;;;;1.20;1.00;;;;;;;10.94;100.00;99350.69;15272791;19;20429;-48
2023/10/08 18:04:02;;;;;;;1.77;1.30;;;;;;;10.94;100.00;99367.72;15275570;19;20023;-49
2023/10/08 18:09:28;;;;;;;2.30;1.38;;;;;;;10.96;100.00;99362.19;15278975;19;20764;-47
2023/10/08 18:14:56;;;;;;;1.33;1.13;;;;;;;10.98;100.00;99371.00;15276750;19;20018;-47
2023/10/08 18:20:32;;;;;;;1.20;1.10;;;;;;;11.01;100.00;99368.00;15282773;19;20499;-48
2023/10/08 18:26:00;;;;;;;2.97;1.20;;;;;;;11.03;100.00;99368.72;15275588;19;20014;-50
2023/10/08 18:31:29;;;;;;;2.00;1.10;;;;;;;11.02;100.00;99377.81;15276697;19;20809;-47
2023/10/08 18:36:55;;;;;;;2.03;1.10;;;;;;;10.97;100.00;99376.53;15272207;19;20014;-50
2023/10/08 18:42:23;;;;;;;1.88;1.20;;;;;;;10.95;100.00;99349.72;15281594;19;20485;-49
2023/10/08 18:47:51;;;;;;;1.45;1.20;;;;;;;10.98;100.00;99356.66;15277767;19;20014;-46
2023/10/08 18:53:23;;;;;;;1.17;1.10;;;;;;;11.01;100.00;99376.09;15268391;19;20038;-48
2023/10/08 18:58:51;;;;;;;1.80;1.13;;;;;;;10.98;100.00;99360.22;15274740;19;20029;-46
2023/10/08 19:04:19;;;;;;;2.17;1.13;;;;;;;10.93;100.00;99362.47;15268492;19;20012;-48
2023/10/08 19:09:43;;;;;;;3.17;1.35;;;;;;;10.91;100.00;99340.19;15266062;19;20355;-46
2023/10/08 19:15:13;;;;;;;2.13;1.63;;;;;;;10.90;100.00;99307.00;15276843;19;20538;-46
2023/10/08 19:20:41;;;;;;;2.20;1.50;;;;;;;10.91;100.00;99299.75;15280721;19;20018;-46
2023/10/08 19:26:07;;;;;;;1.45;1.23;;;;;;;10.91;100.00;99286.28;15276656;19;20022;-46
2023/10/08 19:31:31;;;;;;;2.17;1.40;;;;;;;10.88;100.00;99281.16;15273408;19;21198;-46
2023/10/08 19:37:01;;;;;;;1.80;1.25;;;;;;;10.86;100.00;99300.19;15276593;19;20010;-45
2023/10/08 19:42:27;;;;;;;1.88;1.30;;;;;;;10.82;100.00;99308.69;15272535;19;20345;-46
2023/10/08 19:47:53;;;;;;;1.52;1.13;;;;;;;10.82;100.00;99303.31;15275164;19;20427;-46
2023/10/08 19:53:30;;;;;;;1.58;1.20;;;;;;;10.87;100.00;99298.34;15272399;19;20093;-46
2023/10/08 19:58:56;;;;;;;1.42;1.10;;;;;;;10.93;100.00;99306.72;15272869;19;20023;-45
2023/10/08 20:04:20;;;;;;;1.77;1.40;;;;;;;10.95;100.00;99293.09;15273331;19;20665;-44
2023/10/08 20:09:48;;;;;;;2.35;1.40;;;;;;;11.02;100.00;99285.28;15274826;19;20020;-44
2023/10/08 20:15:13;;;;;;;3.17;1.33;;;;;;;11.03;100.00;99284.28;15288539;19;20484;-45
2023/10/08 20:20:38;;;;;;;1.55;1.17;;;;;;;11.03;100.00;99274.34;15287464;19;20085;-45
2023/10/08 20:26:05;;;;;;;2.38;1.20;;;;;;;11.07;100.00;99285.69;15286385;19;20082;-45
2023/10/08 20:31:31;;;;;;;2.20;1.30;;;;;;;11.07;100.00;99275.78;15291581;19;20026;-47
2023/10/08 20:36:55;;;;;;;1.55;1.00;;;;;;;11.08;100.00;99250.50;15283369;19;20022;-45
2023/10/08 20:42:23;;;;;;;1.38;1.10;;;;;;;11.10;100.00;99245.81;15289604;19;20021;-45
2023/10/08 20:47:49;;;;;;;2.38;1.10;;;;;;;11.12;100.00;99250.19;15286880;19;20020;-44
2023/10/08 20:53:21;;;;;;;2.17;1.10;;;;;;;11.17;100.00;99248.75;15284005;19;20037;-45
2023/10/08 20:58:49;;;;;;;2.25;0.90;;;;;;;11.17;100.00;99226.34;15283933;19;20014;-46
2023/10/08 21:04:16;;;;;;;1.10;1.00;;;;;;;11.17;100.00;99202.91;15286847;19;20634;-45
2023/10/08 21:09:43;;;;;;;1.30;1.10;;;;;;;11.20;100.00;99193.69;15274559;19;20018;-44
2023/10/08 21:15:10;;;;;;;1.60;1.13;;;;;;;11.23;100.00;99188.88;15278093;19;20086;-46
2023/10/08 21:20:37;;;;;;;1.63;1.25;;;;;;;11.22;100.00;99175.53;15282859;19;20480;-45
2023/10/08 21:26:01;;;;;;;2.45;1.23;;;;;;;11.19;100.00;99176.66;15281727;19;20031;-45
2023/10/08 21:31:28;;;;;;;1.40;1.20;;;;;;;11.17;100.00;99158.94;15286740;19;20006;-47
2023/10/08 21:36:53;;;;;;;2.05;1.25;;;;;;;11.22;100.00;99132.38;15283190;19;20022;-44
2023/10/08 21:42:19;;;;;;;1.60;1.30;;;;;;;11.18;100.00;99122.88;15280200;19;20422;-44
2023/10/08 21:47:48;;;;;;;1.52;1.10;;;;;;;11.24;100.00;99133.06;15275754;19;20024;-46
2023/10/08 21:53:19;;;;;;;2.00;1.50;;;;;;;11.29;100.00;99138.03;15279967;19;20046;-44
2023/10/08 21:58:46;;;;;;;3.57;1.57;;;;;;;11.22;100.00;99114.34;15281336;19;20011;-45
2023/10/08 22:04:16;;;;;;;1.50;1.40;;;;;;;11.20;100.00;99112.78;15283435;19;20275;-48
2023/10/08 22:09:41;;;;;;;2.75;1.40;;;;;;;11.25;100.00;99094.28;15279509;19;20031;-46
2023/10/08 22:15:15;;;;;;;2.85;1.40;;;;;;;11.32;100.00;99098.13;15277351;19;20692;-45
2023/10/08 22:20:51;;;;;;;1.95;1.55;;;;;;;11.35;100.00;99084.31;15274056;19;20017;-46
2023/10/08 22:26:18;;;;;;;2.53;1.40;;;;;;;11.40;100.00;99083.88;15281443;19;20090;-46
2023/10/08 22:31:46;;;;;;;1.80;1.23;;;;;;;11.45;100.00;99059.13;15283284;19;20014;-51
2023/10/08 22:37:19;;;;;;;2.03;1.38;;;;;;;11.50;100.00;99057.69;15277018;19;20025;-46
2023/10/08 22:42:44;;;;;;;2.08;1.27;;;;;;;11.48;100.00;99042.63;15282770;19;20094;-47
2023/10/08 22:48:16;;;;;;;2.13;1.50;;;;;;;11.50;100.00;99046.91;15273356;19;20024;-46
2023/10/08 22:53:51;;;;;;;2.28;1.35;;;;;;;11.58;100.00;99051.53;15270985;19;20027;-48
2023/10/08 22:59:16;;;;;;;1.80;1.40;;;;;;;11.60;100.00;99049.50;15277760;19;20086;-50
2023/10/08 23:04:40;;;;;;;2.17;1.50;;;;;;;11.63;100.00;99048.38;15281343;19;20404;-47
2023/10/08 23:10:11;;;;;;;1.48;1.20;;;;;;;11.62;100.00;99036.72;15277278;19;20356;-48
2023/10/08 23:15:36;;;;;;;2.00;1.40;;;;;;;11.64;100.00;99023.09;15277764;19;20019;-48
2023/10/08 23:21:05;;;;;;;2.17;1.20;;;;;;;11.68;100.00;99008.25;15272393;19;20476;-45
2023/10/08 23:26:32;;;;;;;1.63;1.45;;;;;;;11.71;100.00;98995.28;15272478;19;20058;-48
2023/10/08 23:31:58;;;;;;;1.60;1.50;;;;;;;11.70;100.00;98957.69;15280002;19;20021;-46
2023/10/08 23:37:24;;;;;;;1.55;1.30;;;;;;;11.74;100.00;98990.59;15276420;19;20014;-48
2023/10/08 23:42:53;;;;;;;1.50;1.40;;;;;;;11.77;100.00;98966.00;15277552;19;20010;-49
2023/10/08 23:48:21;;;;;;;2.28;1.30;;;;;;;11.79;100.00;98961.31;15282002;19;20019;-47
2023/10/08 23:53:53;;;;;;;1.40;1.30;;;;;;;11.86;100.00;98956.97;15282484;19;20511;-47
2023/10/08 23:59:23;;;;;;;1.75;1.40;;;;;;;11.88;100.00;98939.59;15282372;19;20021;-47
